sensor_id;sensor_type;location;lat;lon;timestamp;pressure;altitude;pressure_sealevel;temperature;humidity
51259;BME280;37327;54.254;18.504;2023-01-28T00:02:28;102028.36;;;-1.31;98.22
51259;BME280;37327;54.254;18.504;2023-01-28T00:05:36;102021.30;;;-1.31;97.88
51259;BME280;37327;54.254;18.504;2023-01-28T00:08:43;102025.66;;;-1.30;97.97
51259;BME280;37327;54.254;18.504;2023-01-28T00:11:50;102023.79;;;-1.28;98.52
51259;BME280;37327;54.254;18.504;2023-01-28T00:14:57;102024.59;;;-1.26;98.51
51259;BME280;37327;54.254;18.504;2023-01-28T00:18:04;102024.59;;;-1.26;98.43
51259;BME280;37327;54.254;18.504;2023-01-28T00:21:13;102029.03;;;-1.26;98.18
51259;BME280;37327;54.254;18.504;2023-01-28T00:24:20;102025.53;;;-1.27;97.92
51259;BME280;37327;54.254;18.504;2023-01-28T00:27:27;102023.79;;;-1.28;97.60
51259;BME280;37327;54.254;18.504;2023-01-28T00:30:33;102020.35;;;-1.30;97.70
51259;BME280;37327;54.254;18.504;2023-01-28T00:33:45;102019.43;;;-1.29;97.93
51259;BME280;37327;54.254;18.504;2023-01-28T00:36:52;102018.48;;;-1.28;97.86
51259;BME280;37327;54.254;18.504;2023-01-28T00:40:06;102015.99;;;-1.31;97.85
51259;BME280;37327;54.254;18.504;2023-01-28T00:43:15;102015.16;;;-1.33;97.34
51259;BME280;37327;54.254;18.504;2023-01-28T00:46:22;102021.30;;;-1.31;97.64
51259;BME280;37327;54.254;18.504;2023-01-28T00:49:33;102022.15;;;-1.30;97.81
51259;BME280;37327;54.254;18.504;2023-01-28T00:52:40;102009.08;;;-1.35;96.94
51259;BME280;37327;54.254;18.504;2023-01-28T00:55:47;102013.69;;;-1.38;96.51
51259;BME280;37327;54.254;18.504;2023-01-28T00:58:55;102014.72;;;-1.43;96.08
51259;BME280;37327;54.254;18.504;2023-01-28T01:02:02;102020.10;;;-1.44;96.13
51259;BME280;37327;54.254;18.504;2023-01-28T01:05:20;102010.30;;;-1.42;96.98
51259;BME280;37327;54.254;18.504;2023-01-28T01:08:26;102007.49;;;-1.39;97.72
51259;BME280;37327;54.254;18.504;2023-01-28T01:11:45;102009.18;;;-1.36;98.11
51259;BME280;37327;54.254;18.504;2023-01-28T01:14:52;102008.11;;;-1.32;98.54
51259;BME280;37327;54.254;18.504;2023-01-28T01:17:59;102002.75;;;-1.31;98.53
51259;BME280;37327;54.254;18.504;2023-01-28T01:21:13;102005.52;;;-1.34;97.96
51259;BME280;37327;54.254;18.504;2023-01-28T01:24:20;102010.03;;;-1.36;98.06
51259;BME280;37327;54.254;18.504;2023-01-28T01:27:27;102012.68;;;-1.36;98.31
51259;BME280;37327;54.254;18.504;2023-01-28T01:30:35;102015.33;;;-1.36;98.80
51259;BME280;37327;54.254;18.504;2023-01-28T01:33:45;102014.54;;;-1.38;98.59
51259;BME280;37327;54.254;18.504;2023-01-28T01:36:53;102015.39;;;-1.37;98.20
51259;BME280;37327;54.254;18.504;2023-01-28T01:40:00;102014.38;;;-1.35;98.93
51259;BME280;37327;54.254;18.504;2023-01-28T01:43:19;102009.08;;;-1.35;98.39
51259;BME280;37327;54.254;18.504;2023-01-28T01:46:37;102010.94;;;-1.37;98.03
51259;BME280;37327;54.254;18.504;2023-01-28T01:49:44;102007.59;;;-1.41;97.23
51259;BME280;37327;54.254;18.504;2023-01-28T01:52:56;102004.21;;;-1.44;97.04
51259;BME280;37327;54.254;18.504;2023-01-28T01:56:18;102002.41;;;-1.44;97.21
51259;BME280;37327;54.254;18.504;2023-01-28T01:59:30;102005.06;;;-1.44;97.65
51259;BME280;37327;54.254;18.504;2023-01-28T02:02:45;102002.36;;;-1.42;98.35
51259;BME280;37327;54.254;18.504;2023-01-28T02:05:53;102003.20;;;-1.42;98.11
51259;BME280;37327;54.254;18.504;2023-01-28T02:09:00;101998.76;;;-1.41;98.36
51259;BME280;37327;54.254;18.504;2023-01-28T02:12:12;102008.50;;;-1.42;98.12
51259;BME280;37327;54.254;18.504;2023-01-28T02:15:23;102003.20;;;-1.42;98.32
51259;BME280;37327;54.254;18.504;2023-01-28T02:18:31;102004.06;;;-1.41;98.84
51259;BME280;37327;54.254;18.504;2023-01-28T02:28:22;102009.08;;;-1.35;99.87
51259;BME280;37327;54.254;18.504;2023-01-28T02:31:42;102000.34;;;-1.37;99.22
51259;BME280;37327;54.254;18.504;2023-01-28T02:35:17;101991.60;;;-1.39;98.84
51259;BME280;37327;54.254;18.504;2023-01-28T02:41:40;101993.40;;;-1.40;99.55
51259;BME280;37327;54.254;18.504;2023-01-28T02:44:49;101991.70;;;-1.41;99.54
51259;BME280;37327;54.254;18.504;2023-01-28T02:47:57;101987.31;;;-1.42;99.95
51259;BME280;37327;54.254;18.504;2023-01-28T02:51:14;101989.91;;;-1.40;100.00
51259;BME280;37327;54.254;18.504;2023-01-28T02:54:32;101995.32;;;-1.43;99.78
51259;BME280;37327;54.254;18.504;2023-01-28T02:58:33;101993.89;;;-1.50;98.46
51259;BME280;37327;54.254;18.504;2023-01-28T03:01:07;101986.13;;;-1.55;97.83
51259;BME280;37327;54.254;18.504;2023-01-28T03:04:22;101988.84;;;-1.56;97.74
51259;BME280;37327;54.254;18.504;2023-01-28T03:07:34;101986.92;;;-1.53;98.12
51259;BME280;37327;54.254;18.504;2023-01-28T03:10:43;101987.71;;;-1.51;98.57
51259;BME280;37327;54.254;18.504;2023-01-28T03:13:50;101992.03;;;-1.48;99.79
51259;BME280;37327;54.254;18.504;2023-01-28T03:17:32;101987.71;;;-1.51;98.85
51259;BME280;37327;54.254;18.504;2023-01-28T03:24:23;101985.00;;;-1.49;99.94
51259;BME280;37327;54.254;18.504;2023-01-28T03:31:16;101985.00;;;-1.49;99.61
51259;BME280;37327;54.254;18.504;2023-01-28T03:34:36;101980.77;;;-1.53;99.28
51259;BME280;37327;54.254;18.504;2023-01-28T03:37:55;101983.41;;;-1.53;99.31
51259;BME280;37327;54.254;18.504;2023-01-28T03:41:05;101977.16;;;-1.52;99.71
51259;BME280;37327;54.254;18.504;2023-01-28T03:44:12;101979.83;;;-1.52;100.00
51259;BME280;37327;54.254;18.504;2023-01-28T03:47:32;101978.00;;;-1.50;100.00
51259;BME280;37327;54.254;18.504;2023-01-28T03:50:39;101980.70;;;-1.52;100.00
51259;BME280;37327;54.254;18.504;2023-01-28T03:53:46;101972.82;;;-1.53;100.00
51259;BME280;37327;54.254;18.504;2023-01-28T03:56:53;101978.12;;;-1.53;99.76
51259;BME280;37327;54.254;18.504;2023-01-28T04:00:00;101979.98;;;-1.55;99.37
51259;BME280;37327;54.254;18.504;2023-01-28T04:03:11;101974.69;;;-1.55;99.29
51259;BME280;37327;54.254;18.504;2023-01-28T04:06:24;101979.03;;;-1.54;99.79
51259;BME280;37327;54.254;18.504;2023-01-28T04:09:31;101980.70;;;-1.52;100.00
51259;BME280;37327;54.254;18.504;2023-01-28T04:12:38;101976.26;;;-1.51;100.00
51259;BME280;37327;54.254;18.504;2023-01-28T04:15:45;101980.70;;;-1.52;100.00
51259;BME280;37327;54.254;18.504;2023-01-28T04:18:53;101981.55;;;-1.51;99.76
51259;BME280;37327;54.254;18.504;2023-01-28T04:22:00;101978.98;;;-1.53;99.77
51259;BME280;37327;54.254;18.504;2023-01-28T04:25:11;101972.82;;;-1.53;99.74
51259;BME280;37327;54.254;18.504;2023-01-28T04:28:17;101970.17;;;-1.53;99.93
51259;BME280;37327;54.254;18.504;2023-01-28T04:31:24;101973.62;;;-1.51;100.00
51259;BME280;37327;54.254;18.504;2023-01-28T04:34:31;101975.25;;;-1.49;100.00
51259;BME280;37327;54.254;18.504;2023-01-28T04:37:40;101978.85;;;-1.50;100.00
51259;BME280;37327;54.254;18.504;2023-01-28T04:40:53;101971.24;;;-1.57;100.00
51259;BME280;37327;54.254;18.504;2023-01-28T04:44:00;101980.90;;;-1.56;100.00
51259;BME280;37327;54.254;18.504;2023-01-28T04:47:07;101983.41;;;-1.53;100.00
51259;BME280;37327;54.254;18.504;2023-01-28T04:50:15;101974.69;;;-1.55;100.00
51259;BME280;37327;54.254;18.504;2023-01-28T04:53:22;101965.22;;;-1.61;100.00
51259;BME280;37327;54.254;18.504;2023-01-28T04:56:29;101967.80;;;-1.60;100.00
51259;BME280;37327;54.254;18.504;2023-01-28T04:59:36;101975.54;;;-1.55;100.00
51259;BME280;37327;54.254;18.504;2023-01-28T05:02:43;101980.70;;;-1.52;100.00
51259;BME280;37327;54.254;18.504;2023-01-28T05:05:50;101982.56;;;-1.54;100.00
51259;BME280;37327;54.254;18.504;2023-01-28T05:08:57;101977.39;;;-1.57;100.00
51259;BME280;37327;54.254;18.504;2023-01-28T05:12:04;101979.83;;;-1.52;100.00
51259;BME280;37327;54.254;18.504;2023-01-28T05:15:11;101984.21;;;-1.51;100.00
51259;BME280;37327;54.254;18.504;2023-01-28T05:18:19;101976.48;;;-1.56;100.00
51259;BME280;37327;54.254;18.504;2023-01-28T05:21:26;101981.04;;;-1.60;100.00
51259;BME280;37327;54.254;18.504;2023-01-28T05:24:33;101988.05;;;-1.59;100.00
51259;BME280;37327;54.254;18.504;2023-01-28T05:27:41;101994.13;;;-1.56;100.00
51259;BME280;37327;54.254;18.504;2023-01-28T05:30:47;101991.48;;;-1.56;100.00
51259;BME280;37327;54.254;18.504;2023-01-28T05:33:54;102004.73;;;-1.56;100.00
51259;BME280;37327;54.254;18.504;2023-01-28T05:37:01;101990.64;;;-1.57;100.00
51259;BME280;37327;54.254;18.504;2023-01-28T05:40:10;101994.30;;;-1.60;100.00
51259;BME280;37327;54.254;18.504;2023-01-28T05:43:17;101981.96;;;-1.61;100.00
51259;BME280;37327;54.254;18.504;2023-01-28T05:46:24;101985.55;;;-1.62;100.00
51259;BME280;37327;54.254;18.504;2023-01-28T05:49:31;101983.69;;;-1.60;100.00
51259;BME280;37327;54.254;18.504;2023-01-28T05:52:39;101984.55;;;-1.59;100.00
51259;BME280;37327;54.254;18.504;2023-01-28T05:55:50;101988.84;;;-1.56;100.00
51259;BME280;37327;54.254;18.504;2023-01-28T05:58:58;101986.98;;;-1.54;100.00
51259;BME280;37327;54.254;18.504;2023-01-28T06:02:05;101988.71;;;-1.53;100.00
51259;BME280;37327;54.254;18.504;2023-01-28T06:05:12;101991.30;;;-1.52;100.00
51259;BME280;37327;54.254;18.504;2023-01-28T06:08:19;101984.15;;;-1.50;100.00
51259;BME280;37327;54.254;18.504;2023-01-28T06:11:26;101980.55;;;-1.49;100.00
51259;BME280;37327;54.254;18.504;2023-01-28T06:14:33;101980.65;;;-1.50;100.00
51259;BME280;37327;54.254;18.504;2023-01-28T06:17:40;101987.71;;;-1.51;100.00
51259;BME280;37327;54.254;18.504;2023-01-28T06:20:48;101986.85;;;-1.51;100.00
51259;BME280;37327;54.254;18.504;2023-01-28T06:23:55;101986.73;;;-1.48;100.00
51259;BME280;37327;54.254;18.504;2023-01-28T06:27:02;101990.23;;;-1.48;100.00
51259;BME280;37327;54.254;18.504;2023-01-28T06:30:11;101984.88;;;-1.46;100.00
51259;BME280;37327;54.254;18.504;2023-01-28T06:33:18;101982.13;;;-1.45;100.00
51259;BME280;37327;54.254;18.504;2023-01-28T06:36:26;101975.25;;;-1.49;100.00
51259;BME280;37327;54.254;18.504;2023-01-28T06:39:33;101978.85;;;-1.50;100.00
51259;BME280;37327;54.254;18.504;2023-01-28T06:42:40;101990.36;;;-1.51;100.00
51259;BME280;37327;54.254;18.504;2023-01-28T06:45:47;101986.01;;;-1.52;100.00
51259;BME280;37327;54.254;18.504;2023-01-28T06:48:54;101984.21;;;-1.51;100.00
51259;BME280;37327;54.254;18.504;2023-01-28T06:52:00;101988.60;;;-1.50;100.00
51259;BME280;37327;54.254;18.504;2023-01-28T06:55:08;101991.14;;;-1.49;100.00
51259;BME280;37327;54.254;18.504;2023-01-28T06:58:15;101993.73;;;-1.47;100.00
51259;BME280;37327;54.254;18.504;2023-01-28T07:01:22;101991.37;;;-1.53;100.00
51259;BME280;37327;54.254;18.504;2023-01-28T07:04:31;101987.86;;;-1.54;100.00
51259;BME280;37327;54.254;18.504;2023-01-28T07:07:38;102000.04;;;-1.50;100.00
51259;BME280;37327;54.254;18.504;2023-01-28T07:10:44;101994.69;;;-1.48;100.00
51259;BME280;37327;54.254;18.504;2023-01-28T07:13:52;101992.03;;;-1.48;100.00
51259;BME280;37327;54.254;18.504;2023-01-28T07:17:01;101999.04;;;-1.47;100.00
51259;BME280;37327;54.254;18.504;2023-01-28T07:20:09;102003.42;;;-1.46;100.00
51259;BME280;37327;54.254;18.504;2023-01-28T07:23:16;102001.57;;;-1.44;100.00
51259;BME280;37327;54.254;18.504;2023-01-28T07:26:23;102004.06;;;-1.41;100.00
51259;BME280;37327;54.254;18.504;2023-01-28T07:29:30;101996.90;;;-1.39;100.00
51259;BME280;37327;54.254;18.504;2023-01-28T07:32:38;102008.23;;;-1.35;100.00
51259;BME280;37327;54.254;18.504;2023-01-28T07:35:45;102006.31;;;-1.32;100.00
51259;BME280;37327;54.254;18.504;2023-01-28T07:38:52;101998.37;;;-1.32;100.00
51259;BME280;37327;54.254;18.504;2023-01-28T07:41:59;102011.62;;;-1.32;100.00
51259;BME280;37327;54.254;18.504;2023-01-28T07:45:08;102015.05;;;-1.30;100.00
51259;BME280;37327;54.254;18.504;2023-01-28T07:48:15;102012.62;;;-1.34;100.00
51259;BME280;37327;54.254;18.504;2023-01-28T07:51:22;102009.97;;;-1.34;100.00
51259;BME280;37327;54.254;18.504;2023-01-28T07:54:29;102012.68;;;-1.36;100.00
51259;BME280;37327;54.254;18.504;2023-01-28T07:57:36;102012.53;;;-1.33;100.00
51259;BME280;37327;54.254;18.504;2023-01-28T08:00:43;102011.49;;;-1.29;100.00
51259;BME280;37327;54.254;18.504;2023-01-28T08:03:50;102012.27;;;-1.27;100.00
51259;BME280;37327;54.254;18.504;2023-01-28T08:06:57;102017.57;;;-1.27;100.00
51259;BME280;37327;54.254;18.504;2023-01-28T08:10:05;102012.27;;;-1.27;100.00
51259;BME280;37327;54.254;18.504;2023-01-28T08:13:13;101998.08;;;-1.26;99.91
51259;BME280;37327;54.254;18.504;2023-01-28T08:16:20;101998.08;;;-1.26;99.34
51259;BME280;37327;54.254;18.504;2023-01-28T08:19:27;102000.61;;;-1.23;99.40
51259;BME280;37327;54.254;18.504;2023-01-28T08:22:34;101992.37;;;-1.16;99.97
51259;BME280;37327;54.254;18.504;2023-01-28T08:25:41;101993.95;;;-1.12;100.00
51259;BME280;37327;54.254;18.504;2023-01-28T08:28:49;101995.47;;;-1.07;100.00
51259;BME280;37327;54.254;18.504;2023-01-28T08:31:55;101998.84;;;-1.03;100.00
51259;BME280;37327;54.254;18.504;2023-01-28T08:35:03;102000.55;;;-1.02;99.61
51259;BME280;37327;54.254;18.504;2023-01-28T08:38:12;102003.06;;;-0.99;99.30
51259;BME280;37327;54.254;18.504;2023-01-28T08:41:23;102009.10;;;-0.95;99.02
51259;BME280;37327;54.254;18.504;2023-01-28T08:44:30;102009.66;;;-0.89;99.41
51259;BME280;37327;54.254;18.504;2023-01-28T08:50:57;102019.20;;;-0.85;98.91
51259;BME280;37327;54.254;18.504;2023-01-28T08:54:05;102020.77;;;-0.81;98.82
51259;BME280;37327;54.254;18.504;2023-01-28T08:57:12;102016.18;;;-0.77;98.94
51259;BME280;37327;54.254;18.504;2023-01-28T09:00:21;102010.75;;;-0.74;98.69
51259;BME280;37327;54.254;18.504;2023-01-28T09:03:28;102027.64;;;-0.76;97.99
51259;BME280;37327;54.254;18.504;2023-01-28T09:06:35;102023.35;;;-0.79;97.65
51259;BME280;37327;54.254;18.504;2023-01-28T09:09:42;102024.07;;;-0.75;98.40
51259;BME280;37327;54.254;18.504;2023-01-28T09:12:49;102013.23;;;-0.71;98.85
51259;BME280;37327;54.254;18.504;2023-01-28T09:15:56;102013.05;;;-0.66;98.69
51259;BME280;37327;54.254;18.504;2023-01-28T09:19:03;102019.13;;;-0.64;98.67
51259;BME280;37327;54.254;18.504;2023-01-28T09:22:11;102015.59;;;-0.65;98.33
51259;BME280;37327;54.254;18.504;2023-01-28T09:25:18;102022.41;;;-0.59;98.36
51259;BME280;37327;54.254;18.504;2023-01-28T09:28:25;102017.27;;;-0.62;97.16
51259;BME280;37327;54.254;18.504;2023-01-28T09:31:32;102017.20;;;-0.61;96.75
51259;BME280;37327;54.254;18.504;2023-01-28T09:34:39;102022.41;;;-0.59;96.95
51259;BME280;37327;54.254;18.504;2023-01-28T09:37:47;102026.63;;;-0.55;97.16
51259;BME280;37327;54.254;18.504;2023-01-28T09:40:54;102023.98;;;-0.55;95.84
51259;BME280;37327;54.254;18.504;2023-01-28T09:50:39;102013.10;;;-0.49;94.22
51259;BME280;37327;54.254;18.504;2023-01-28T09:53:52;102015.36;;;-0.41;94.67
51259;BME280;37327;54.254;18.504;2023-01-28T09:57:05;102014.86;;;-0.30;95.09
51259;BME280;37327;54.254;18.504;2023-01-28T10:00:20;102007.38;;;-0.22;95.29
51259;BME280;37327;54.254;18.504;2023-01-28T10:06:59;101994.30;;;-0.08;94.71
51259;BME280;37327;54.254;18.504;2023-01-28T10:13:34;101997.25;;;0.04;94.20
51259;BME280;37327;54.254;18.504;2023-01-28T10:16:50;101989.91;;;0.09;94.01
51259;BME280;37327;54.254;18.504;2023-01-28T10:20:06;101995.09;;;0.12;93.65
51259;BME280;37327;54.254;18.504;2023-01-28T10:26:40;101982.42;;;0.17;92.84
51259;BME280;37327;54.254;18.504;2023-01-28T10:29:52;101977.88;;;0.19;92.93
51259;BME280;37327;54.254;18.504;2023-01-28T10:33:05;101972.50;;;0.21;93.04
51259;BME280;37327;54.254;18.504;2023-01-28T10:36:16;101976.77;;;0.23;92.94
51259;BME280;37327;54.254;18.504;2023-01-28T10:39:25;101969.59;;;0.25;92.93
51259;BME280;37327;54.254;18.504;2023-01-28T10:42:36;101970.47;;;0.26;92.58
51259;BME280;37327;54.254;18.504;2023-01-28T10:45:58;101959.08;;;0.24;91.58
51259;BME280;37327;54.254;18.504;2023-01-28T10:49:25;101952.09;;;0.21;91.64
51259;BME280;37327;54.254;18.504;2023-01-28T10:52:36;101954.69;;;0.23;91.84
51259;BME280;37327;54.254;18.504;2023-01-28T10:55:50;101958.12;;;0.25;92.08
51259;BME280;37327;54.254;18.504;2023-01-28T10:59:03;101949.13;;;0.27;92.15
51259;BME280;37327;54.254;18.504;2023-01-28T11:05:31;101947.34;;;0.28;91.96
51259;BME280;37327;54.254;18.504;2023-01-28T11:08:43;101950.78;;;0.30;92.22
51259;BME280;37327;54.254;18.504;2023-01-28T11:11:50;101956.09;;;0.30;91.93
51259;BME280;37327;54.254;18.504;2023-01-28T11:15:04;101949.89;;;0.29;92.24
51259;BME280;37327;54.254;18.504;2023-01-28T11:18:17;101943.73;;;0.29;92.36
51259;BME280;37327;54.254;18.504;2023-01-28T11:21:27;101945.47;;;0.30;92.25
51259;BME280;37327;54.254;18.504;2023-01-28T11:24:35;101938.27;;;0.32;92.16
51259;BME280;37327;54.254;18.504;2023-01-28T11:27:50;101939.97;;;0.33;92.10
51259;BME280;37327;54.254;18.504;2023-01-28T11:30:57;101933.66;;;0.35;92.58
51259;BME280;37327;54.254;18.504;2023-01-28T11:34:05;101945.91;;;0.38;92.37
51259;BME280;37327;54.254;18.504;2023-01-28T11:37:22;101947.73;;;0.37;92.23
51259;BME280;37327;54.254;18.504;2023-01-28T11:40:32;101933.40;;;0.40;92.54
51259;BME280;37327;54.254;18.504;2023-01-28T11:43:41;101932.49;;;0.41;92.47
51259;BME280;37327;54.254;18.504;2023-01-28T11:50:23;101919.27;;;0.39;92.28
51259;BME280;37327;54.254;18.504;2023-01-28T12:00:20;101917.20;;;0.45;92.48
51259;BME280;37327;54.254;18.504;2023-01-28T12:10:23;101910.20;;;0.44;92.45
51259;BME280;37327;54.254;18.504;2023-01-28T12:27:06;101888.39;;;0.37;91.64
51259;BME280;37327;54.254;18.504;2023-01-28T12:30:43;101894.80;;;0.33;91.12
51259;BME280;37327;54.254;18.504;2023-01-28T12:44:03;101879.90;;;0.30;92.21
51259;BME280;37327;54.254;18.504;2023-01-28T12:47:21;101879.90;;;0.30;92.51
51259;BME280;37327;54.254;18.504;2023-01-28T12:50:35;101885.29;;;0.29;92.55
51259;BME280;37327;54.254;18.504;2023-01-28T12:53:52;101867.65;;;0.28;92.58
51259;BME280;37327;54.254;18.504;2023-01-28T12:57:02;101857.02;;;0.28;92.49
51259;BME280;37327;54.254;18.504;2023-01-28T13:00:21;101854.37;;;0.28;92.49
51259;BME280;37327;54.254;18.504;2023-01-28T13:03:42;101854.70;;;0.22;91.72
51259;BME280;37327;54.254;18.504;2023-01-28T13:07:04;101851.24;;;0.19;92.06
51259;BME280;37327;54.254;18.504;2023-01-28T13:13:38;101837.88;;;0.21;92.25
51259;BME280;37327;54.254;18.504;2023-01-28T13:16:47;101834.23;;;0.24;92.52
51259;BME280;37327;54.254;18.504;2023-01-28T13:19:56;101831.38;;;0.27;92.70
51259;BME280;37327;54.254;18.504;2023-01-28T13:23:20;101833.96;;;0.28;92.59
51259;BME280;37327;54.254;18.504;2023-01-28T13:26:26;101824.12;;;0.30;92.52
51259;BME280;37327;54.254;18.504;2023-01-28T13:29:34;101818.73;;;0.32;92.65
51259;BME280;37327;54.254;18.504;2023-01-28T13:32:41;101818.66;;;0.33;92.51
51259;BME280;37327;54.254;18.504;2023-01-28T13:35:55;101813.34;;;0.33;92.47
51259;BME280;37327;54.254;18.504;2023-01-28T13:39:13;101811.61;;;0.32;92.34
51259;BME280;37327;54.254;18.504;2023-01-28T13:42:23;101808.10;;;0.32;92.26
51259;BME280;37327;54.254;18.504;2023-01-28T13:45:32;101808.95;;;0.32;92.25
51259;BME280;37327;54.254;18.504;2023-01-28T13:50:14;101814.34;;;0.31;92.19
51259;BME280;37327;54.254;18.504;2023-01-28T14:16:37;101807.30;;;0.14;92.19
51259;BME280;37327;54.254;18.504;2023-01-28T14:19:49;101796.84;;;0.11;92.42
51259;BME280;37327;54.254;18.504;2023-01-28T14:23:03;101790.90;;;0.06;92.48
51259;BME280;37327;54.254;18.504;2023-01-28T14:29:41;101767.52;;;-0.04;92.72
51259;BME280;37327;54.254;18.504;2023-01-28T14:32:51;101774.87;;;-0.09;92.63
51259;BME280;37327;54.254;18.504;2023-01-28T14:35:59;101772.36;;;-0.12;92.78
51259;BME280;37327;54.254;18.504;2023-01-28T14:39:22;101782.30;;;-0.15;92.83
51259;BME280;37327;54.254;18.504;2023-01-28T14:49:09;101751.97;;;-0.27;93.05
51259;BME280;37327;54.254;18.504;2023-01-28T14:59:01;101779.90;;;-0.37;93.31
51259;BME280;37327;54.254;18.504;2023-01-28T15:02:18;101786.23;;;-0.40;93.01
51259;BME280;37327;54.254;18.504;2023-01-28T15:05:27;101784.61;;;-0.43;92.94
51259;BME280;37327;54.254;18.504;2023-01-28T15:08:35;101779.45;;;-0.46;92.88
51259;BME280;37327;54.254;18.504;2023-01-28T15:11:45;101784.05;;;-0.49;93.08
51259;BME280;37327;54.254;18.504;2023-01-28T15:14:54;101788.66;;;-0.53;93.30
51259;BME280;37327;54.254;18.504;2023-01-28T15:21:24;101815.28;;;-0.54;93.60
51259;BME280;37327;54.254;18.504;2023-01-28T15:24:36;101806.55;;;-0.56;93.62
51259;BME280;37327;54.254;18.504;2023-01-28T15:27:51;101811.92;;;-0.58;93.72
51259;BME280;37327;54.254;18.504;2023-01-28T15:30:59;101811.15;;;-0.60;93.93
51259;BME280;37327;54.254;18.504;2023-01-28T15:34:12;101824.62;;;-0.65;94.18
51259;BME280;37327;54.254;18.504;2023-01-28T15:37:20;101843.29;;;-0.66;94.45
51259;BME280;37327;54.254;18.504;2023-01-28T15:40:29;101837.03;;;-0.65;94.75
51259;BME280;37327;54.254;18.504;2023-01-28T15:43:37;101845.16;;;-0.68;94.80
51259;BME280;37327;54.254;18.504;2023-01-28T15:46:44;101846.00;;;-0.68;95.06
51259;BME280;37327;54.254;18.504;2023-01-28T15:49:58;101846.08;;;-0.69;95.22
51259;BME280;37327;54.254;18.504;2023-01-28T15:53:08;101837.41;;;-0.73;95.26
51259;BME280;37327;54.254;18.504;2023-01-28T15:59:34;101834.04;;;-0.76;95.64
51259;BME280;37327;54.254;18.504;2023-01-28T16:02:46;101835.84;;;-0.77;95.70
51259;BME280;37327;54.254;18.504;2023-01-28T16:05:58;101823.54;;;-0.78;95.72
51259;BME280;37327;54.254;18.504;2023-01-28T16:09:29;101818.30;;;-0.80;95.65
51259;BME280;37327;54.254;18.504;2023-01-28T16:12:26;101827.25;;;-0.82;95.75
51259;BME280;37327;54.254;18.504;2023-01-28T16:15:34;101813.31;;;-0.86;95.88
51259;BME280;37327;54.254;18.504;2023-01-28T16:18:48;101806.27;;;-0.87;96.00
51259;BME280;37327;54.254;18.504;2023-01-28T16:22:01;101809.88;;;-0.88;96.08
51259;BME280;37327;54.254;18.504;2023-01-28T16:28:28;101818.99;;;-0.93;95.91
51259;BME280;37327;54.254;18.504;2023-01-28T16:31:35;101817.26;;;-0.94;96.13
51259;BME280;37327;54.254;18.504;2023-01-28T16:34:43;101816.41;;;-0.95;96.38
51259;BME280;37327;54.254;18.504;2023-01-28T16:37:50;101824.43;;;-0.96;96.22
51259;BME280;37327;54.254;18.504;2023-01-28T16:40:58;101825.45;;;-0.99;96.27
51259;BME280;37327;54.254;18.504;2023-01-28T16:44:05;101821.95;;;-1.00;96.54
51259;BME280;37327;54.254;18.504;2023-01-28T16:47:13;101801.59;;;-0.99;96.63
51259;BME280;37327;54.254;18.504;2023-01-28T16:50:20;101796.36;;;-1.01;96.55
51259;BME280;37327;54.254;18.504;2023-01-28T16:53:31;101792.08;;;-1.03;96.50
51259;BME280;37327;54.254;18.504;2023-01-28T16:56:38;101791.44;;;-1.08;96.46
51259;BME280;37327;54.254;18.504;2023-01-28T16:59:46;101772.47;;;-1.18;96.12
51259;BME280;37327;54.254;18.504;2023-01-28T17:02:53;101780.85;;;-1.27;95.91
51259;BME280;37327;54.254;18.504;2023-01-28T17:06:00;101776.09;;;-1.38;96.08
51259;BME280;37327;54.254;18.504;2023-01-28T17:09:07;101776.46;;;-1.46;96.17
51259;BME280;37327;54.254;18.504;2023-01-28T17:12:14;101778.62;;;-1.54;96.38
51259;BME280;37327;54.254;18.504;2023-01-28T17:15:21;101782.54;;;-1.63;96.38
51259;BME280;37327;54.254;18.504;2023-01-28T17:18:28;101782.84;;;-1.69;96.53
51259;BME280;37327;54.254;18.504;2023-01-28T17:21:36;101780.41;;;-1.73;96.69
51259;BME280;37327;54.254;18.504;2023-01-28T17:24:43;101788.55;;;-1.78;96.65
51259;BME280;37327;54.254;18.504;2023-01-28T17:27:51;101802.01;;;-1.83;97.01
51259;BME280;37327;54.254;18.504;2023-01-28T17:30:58;101806.52;;;-1.85;97.22
51259;BME280;37327;54.254;18.504;2023-01-28T17:34:06;101784.39;;;-1.84;97.34
51259;BME280;37327;54.254;18.504;2023-01-28T17:37:16;101773.73;;;-1.82;97.55
51259;BME280;37327;54.254;18.504;2023-01-28T17:40:23;101773.67;;;-1.81;97.67
51259;BME280;37327;54.254;18.504;2023-01-28T17:43:31;101779.81;;;-1.80;97.72
51259;BME280;37327;54.254;18.504;2023-01-28T17:46:40;101784.27;;;-1.81;97.76
51259;BME280;37327;54.254;18.504;2023-01-28T17:49:47;101766.67;;;-1.82;97.95
51259;BME280;37327;54.254;18.504;2023-01-28T17:52:55;101771.97;;;-1.82;98.08
51259;BME280;37327;54.254;18.504;2023-01-28T17:56:02;101785.12;;;-1.80;98.04
51259;BME280;37327;54.254;18.504;2023-01-28T17:59:09;101786.97;;;-1.82;98.08
51259;BME280;37327;54.254;18.504;2023-01-28T18:02:19;101772.88;;;-1.83;98.03
51259;BME280;37327;54.254;18.504;2023-01-28T18:05:26;101766.80;;;-1.85;97.95
51259;BME280;37327;54.254;18.504;2023-01-28T18:08:36;101762.59;;;-1.89;97.98
51259;BME280;37327;54.254;18.504;2023-01-28T18:11:43;101753.92;;;-1.92;98.03
51259;BME280;37327;54.254;18.504;2023-01-28T18:14:50;101761.20;;;-1.97;98.12
51259;BME280;37327;54.254;18.504;2023-01-28T18:17:56;101756.13;;;-2.02;98.20
51259;BME280;37327;54.254;18.504;2023-01-28T18:21:05;101746.55;;;-2.05;98.44
51259;BME280;37327;54.254;18.504;2023-01-28T18:24:13;101743.91;;;-2.05;98.74
51259;BME280;37327;54.254;18.504;2023-01-28T18:27:20;101753.48;;;-2.02;99.00
51259;BME280;37327;54.254;18.504;2023-01-28T18:30:28;101743.63;;;-1.99;99.24
51259;BME280;37327;54.254;18.504;2023-01-28T18:33:36;101733.75;;;-1.95;99.44